Time;durP1;ratioP1;P1;durP2;ratioP2;P2;SDS_P1;SDS_P2;PMS_P1;PMS_P2;Temp;Humidity;BMP_temperature;BMP_pressure;BME280_temperature;BME280_humidity;BME280_pressure;Samples;Min_cycle;Max_cycle;Signal;HPM_P1;HPM_P2
2021/12/15 00:01:27;;;;;;;17.45;12.85;;;;;;;;;;4924333;29;20224;-82
2021/12/15 00:03:53;;;;;;;19.80;14.00;;;;;;;;;;4925131;29;20205;-82
2021/12/15 00:06:20;;;;;;;20.92;13.95;;;;;;;;;;4951068;29;20212;-83
2021/12/15 00:08:48;;;;;;;21.90;14.32;;;;;;;;;;4964710;28;20258;-83
2021/12/15 00:11:15;;;;;;;18.42;13.15;;;;;;;;;;4963197;28;20246;-82
2021/12/15 00:13:42;;;;;;;18.10;12.93;;;;;;;;;;4950845;29;20169;-82
2021/12/15 00:16:09;;;;;;;20.10;13.93;;;;;;;;;;4963878;29;20235;-82
2021/12/15 00:18:35;;;;;;;21.45;13.60;;;;;;;;;;4946866;29;20176;-82
2021/12/15 00:21:01;;;;;;;19.30;13.18;;;;;;;;;;4966293;28;20184;-82
2021/12/15 00:23:27;;;;;;;19.30;13.18;;;;;;;;;;4965867;28;20208;-83
2021/12/15 00:25:53;;;;;;;16.60;12.50;;;;;;;;;;4945564;29;20196;-83
2021/12/15 00:28:19;;;;;;;17.83;13.27;;;;;;;;;;4965954;29;20271;-83
2021/12/15 00:30:45;;;;;;;21.70;13.18;;;;;;;;;;4952083;29;20215;-82
2021/12/15 00:33:12;;;;;;;18.85;13.20;;;;;;;;;;4963737;28;20188;-82
2021/12/15 00:35:38;;;;;;;23.35;14.10;;;;;;;;;;4949024;28;20270;-82
2021/12/15 00:38:04;;;;;;;19.35;13.55;;;;;;;;;;4948978;29;21322;-82
2021/12/15 00:40:31;;;;;;;20.00;13.70;;;;;;;;;;4945927;29;20188;-83
2021/12/15 00:42:58;;;;;;;18.77;13.18;;;;;;;;;;4965855;29;20196;-82
2021/12/15 00:45:24;;;;;;;17.75;12.90;;;;;;;;;;4945956;29;20177;-82
2021/12/15 00:47:50;;;;;;;16.17;11.80;;;;;;;;;;4966440;28;20215;-82
2021/12/15 00:50:18;;;;;;;20.23;13.23;;;;;;;;;;4947066;29;20253;-82
2021/12/15 00:52:44;;;;;;;22.27;13.90;;;;;;;;;;4957863;29;20331;-82
2021/12/15 00:55:12;;;;;;;23.10;13.48;;;;;;;;;;4964484;28;20196;-82
2021/12/15 00:57:38;;;;;;;21.98;13.80;;;;;;;;;;4946356;29;20184;-82
2021/12/15 01:00:07;;;;;;;21.02;13.85;;;;;;;;;;4949423;29;20199;-82
2021/12/15 01:02:33;;;;;;;22.55;13.02;;;;;;;;;;4963506;29;20184;-82
2021/12/15 01:04:59;;;;;;;21.83;14.27;;;;;;;;;;4947009;29;20225;-83
2021/12/15 01:07:25;;;;;;;19.58;13.82;;;;;;;;;;4971892;28;20195;-82
2021/12/15 01:09:55;;;;;;;18.85;13.27;;;;;;;;;;4971958;28;20216;-82
2021/12/15 01:20:22;;;;;;;21.33;12.25;;;;;;;;;;4965202;29;20300;-83
2021/12/15 01:22:50;;;;;;;18.58;12.63;;;;;;;;;;4965185;28;20188;-83
2021/12/15 01:25:26;;;;;;;21.77;15.18;;;;;;;;;;4964995;29;20207;-82
2021/12/15 01:27:52;;;;;;;20.98;13.70;;;;;;;;;;4965128;29;20192;-82
2021/12/15 01:30:19;;;;;;;18.90;13.93;;;;;;;;;;4965845;29;20191;-83
2021/12/15 01:32:45;;;;;;;18.85;13.05;;;;;;;;;;4948372;28;20180;-83
2021/12/15 01:35:12;;;;;;;20.73;12.50;;;;;;;;;;4948097;29;20200;-83
2021/12/15 01:37:38;;;;;;;17.23;12.40;;;;;;;;;;4945684;29;20184;-83
2021/12/15 01:40:05;;;;;;;23.52;13.63;;;;;;;;;;4945848;29;20252;-83
2021/12/15 01:42:34;;;;;;;18.38;12.40;;;;;;;;;;4965392;28;20188;-83
2021/12/15 01:47:45;;;;;;;17.80;12.85;;;;;;;;;;4965358;28;20208;-82
2021/12/15 01:50:11;;;;;;;19.13;14.25;;;;;;;;;;4948364;29;20298;-82
2021/12/15 01:52:38;;;;;;;20.80;14.50;;;;;;;;;;4945183;29;20185;-83
2021/12/15 01:55:16;;;;;;;21.02;14.45;;;;;;;;;;4942510;29;20193;-82
2021/12/15 01:57:42;;;;;;;22.33;14.30;;;;;;;;;;4963393;29;20195;-83
2021/12/15 02:00:11;;;;;;;20.40;13.15;;;;;;;;;;4947486;29;20196;-83
2021/12/15 02:02:37;;;;;;;20.23;14.00;;;;;;;;;;4947929;28;20216;-83
2021/12/15 02:05:03;;;;;;;21.92;13.02;;;;;;;;;;4947645;29;20251;-83
2021/12/15 02:07:29;;;;;;;21.85;16.15;;;;;;;;;;4945187;29;20191;-83
2021/12/15 02:12:25;;;;;;;16.95;11.18;;;;;;;;;;4965296;28;20199;-83
2021/12/15 02:14:51;;;;;;;18.30;12.57;;;;;;;;;;4947312;28;20630;-82
2021/12/15 02:17:17;;;;;;;19.48;12.85;;;;;;;;;;4949938;29;20184;-83
2021/12/15 02:19:43;;;;;;;17.65;12.10;;;;;;;;;;4964003;28;20192;-83
2021/12/15 02:22:10;;;;;;;19.73;13.00;;;;;;;;;;4944673;29;20242;-83
2021/12/15 02:24:37;;;;;;;19.38;13.18;;;;;;;;;;4946242;29;20271;-83
2021/12/15 02:27:04;;;;;;;16.42;12.00;;;;;;;;;;4947120;29;20187;-82
2021/12/15 02:29:34;;;;;;;19.05;11.77;;;;;;;;;;4965687;29;20204;-82
2021/12/15 02:32:37;;;;;;;19.23;12.73;;;;;;;;;;4947565;29;20191;-83
2021/12/15 02:37:59;;;;;;;20.35;12.48;;;;;;;;;;4906676;29;20186;-83
2021/12/15 02:40:25;;;;;;;19.85;12.95;;;;;;;;;;4890303;29;20766;-83
2021/12/15 02:42:51;;;;;;;19.42;12.35;;;;;;;;;;4890724;29;20247;-83
2021/12/15 02:45:22;;;;;;;18.77;12.25;;;;;;;;;;4887958;29;20187;-83
2021/12/15 02:47:49;;;;;;;17.33;12.50;;;;;;;;;;4890183;29;20563;-83
2021/12/15 02:50:18;;;;;;;16.67;12.52;;;;;;;;;;4892639;29;20198;-82
2021/12/15 02:52:45;;;;;;;16.08;10.77;;;;;;;;;;4903888;29;20186;-83
2021/12/15 02:55:11;;;;;;;18.60;11.95;;;;;;;;;;4888192;29;21509;-83
2021/12/15 02:57:38;;;;;;;17.10;11.98;;;;;;;;;;4907969;29;20640;-82
2021/12/15 03:00:16;;;;;;;16.65;12.20;;;;;;;;;;4885773;29;20190;-83
2021/12/15 03:05:53;;;;;;;21.00;12.32;;;;;;;;;;4812752;29;20217;-83
2021/12/15 03:08:29;;;;;;;13.82;11.27;;;;;;;;;;4798597;29;20220;-83
2021/12/15 03:16:26;;;;;;;18.73;11.38;;;;;;;;;;4859307;29;20223;-82
2021/12/15 03:18:52;;;;;;;16.92;11.23;;;;;;;;;;4866240;29;20582;-83
2021/12/15 03:21:25;;;;;;;24.83;11.52;;;;;;;;;;4864548;29;20708;-82
2021/12/15 03:24:02;;;;;;;18.35;11.35;;;;;;;;;;4871538;29;20201;-83
2021/12/15 03:26:36;;;;;;;19.58;11.90;;;;;;;;;;4867400;29;20323;-83
2021/12/15 03:37:09;;;;;;;13.80;10.43;;;;;;;;;;4871717;29;20271;-83
2021/12/15 03:39:39;;;;;;;18.40;10.52;;;;;;;;;;4864608;29;20219;-83
2021/12/15 03:42:08;;;;;;;13.20;10.80;;;;;;;;;;4884059;29;20216;-83
2021/12/15 03:44:35;;;;;;;17.20;10.32;;;;;;;;;;4964443;29;20176;-83
2021/12/15 03:47:03;;;;;;;14.25;11.13;;;;;;;;;;4963720;29;20271;-83
2021/12/15 03:49:29;;;;;;;14.32;8.90;;;;;;;;;;4944318;29;20295;-83
2021/12/15 03:51:55;;;;;;;15.40;10.63;;;;;;;;;;4943968;29;20189;-83
2021/12/15 03:54:21;;;;;;;21.17;11.38;;;;;;;;;;4963852;28;20184;-82
2021/12/15 03:56:49;;;;;;;15.43;10.70;;;;;;;;;;4954263;28;20527;-83
2021/12/15 03:59:15;;;;;;;17.50;12.95;;;;;;;;;;4965710;29;20650;-83
2021/12/15 04:01:41;;;;;;;18.52;11.13;;;;;;;;;;4966501;29;20210;-83
2021/12/15 04:04:07;;;;;;;20.27;11.82;;;;;;;;;;4947062;29;20192;-83
2021/12/15 04:06:38;;;;;;;15.00;10.70;;;;;;;;;;4947363;29;20275;-83
2021/12/15 04:09:05;;;;;;;16.27;11.52;;;;;;;;;;4934389;29;20267;-83
2021/12/15 04:11:34;;;;;;;17.08;11.10;;;;;;;;;;4963588;29;20191;-83
2021/12/15 04:14:01;;;;;;;18.10;10.20;;;;;;;;;;4947115;29;20183;-82
2021/12/15 04:18:57;;;;;;;17.80;11.20;;;;;;;;;;4966762;29;20197;-83
2021/12/15 04:21:23;;;;;;;15.32;9.73;;;;;;;;;;4967462;28;20610;-83
2021/12/15 04:23:50;;;;;;;16.42;10.57;;;;;;;;;;4950049;29;20181;-83
2021/12/15 04:26:17;;;;;;;14.93;9.80;;;;;;;;;;4966021;29;20209;-82
2021/12/15 04:28:43;;;;;;;15.02;11.05;;;;;;;;;;4954866;29;20209;-82
2021/12/15 04:31:11;;;;;;;17.52;10.75;;;;;;;;;;4958757;29;20552;-82
2021/12/15 04:33:36;;;;;;;19.58;11.40;;;;;;;;;;4969133;29;20575;-83
2021/12/15 04:36:04;;;;;;;15.13;10.03;;;;;;;;;;4948835;29;20212;-82
2021/12/15 04:38:31;;;;;;;14.52;10.10;;;;;;;;;;4966431;29;20456;-83
2021/12/15 04:40:59;;;;;;;15.00;10.25;;;;;;;;;;4946793;29;20196;-82
2021/12/15 04:43:29;;;;;;;17.92;10.82;;;;;;;;;;4947940;29;20407;-82
2021/12/15 04:45:56;;;;;;;17.05;10.55;;;;;;;;;;4965427;29;20203;-83
2021/12/15 04:48:22;;;;;;;14.45;9.82;;;;;;;;;;4946636;29;20205;-83
2021/12/15 04:50:48;;;;;;;14.57;9.65;;;;;;;;;;4966751;28;20208;-83
2021/12/15 04:53:14;;;;;;;18.65;11.32;;;;;;;;;;4948288;29;20188;-82
2021/12/15 04:55:40;;;;;;;14.93;10.23;;;;;;;;;;4945877;29;20180;-82
2021/12/15 04:58:09;;;;;;;15.50;10.65;;;;;;;;;;4966038;29;20244;-83
2021/12/15 05:00:37;;;;;;;15.27;9.73;;;;;;;;;;4946497;29;20235;-82
2021/12/15 05:03:03;;;;;;;13.48;9.13;;;;;;;;;;4949640;28;20191;-82
2021/12/15 05:05:29;;;;;;;13.40;9.38;;;;;;;;;;4949448;29;20512;-83
2021/12/15 05:07:56;;;;;;;15.48;9.35;;;;;;;;;;4965887;28;20184;-83
2021/12/15 05:10:22;;;;;;;22.00;10.80;;;;;;;;;;4945744;29;20208;-82
2021/12/15 05:12:49;;;;;;;15.98;8.95;;;;;;;;;;4965875;28;20275;-82
2021/12/15 05:15:16;;;;;;;10.30;8.50;;;;;;;;;;4965422;29;20184;-82
2021/12/15 05:17:42;;;;;;;16.02;9.60;;;;;;;;;;4948524;28;20177;-83
2021/12/15 05:20:09;;;;;;;14.15;9.07;;;;;;;;;;4949494;29;20180;-83
2021/12/15 05:22:35;;;;;;;12.00;8.18;;;;;;;;;;4945556;29;20624;-82
2021/12/15 05:25:01;;;;;;;15.48;9.10;;;;;;;;;;4945192;29;20211;-82
2021/12/15 05:27:27;;;;;;;13.63;8.82;;;;;;;;;;4964722;28;20251;-82
2021/12/15 05:29:53;;;;;;;15.35;9.00;;;;;;;;;;4948210;28;20264;-82
2021/12/15 05:32:22;;;;;;;11.77;8.45;;;;;;;;;;4949014;29;20180;-81
2021/12/15 05:34:48;;;;;;;14.45;8.38;;;;;;;;;;4966157;28;20180;-82
2021/12/15 05:37:16;;;;;;;12.20;7.93;;;;;;;;;;4944996;29;20188;-82
2021/12/15 05:39:42;;;;;;;13.75;8.68;;;;;;;;;;4957958;29;20192;-82
2021/12/15 05:42:08;;;;;;;10.23;8.00;;;;;;;;;;4947304;29;20185;-82
2021/12/15 05:44:35;;;;;;;10.50;7.68;;;;;;;;;;4965765;29;20208;-82
2021/12/15 05:47:02;;;;;;;11.85;8.00;;;;;;;;;;4947353;29;20601;-82
2021/12/15 05:49:28;;;;;;;12.70;8.32;;;;;;;;;;4945758;29;20219;-82
2021/12/15 05:51:55;;;;;;;13.30;8.80;;;;;;;;;;4965119;29;20185;-82
2021/12/15 05:54:21;;;;;;;12.85;9.15;;;;;;;;;;4945328;29;20204;-83
2021/12/15 05:56:47;;;;;;;15.18;8.95;;;;;;;;;;4946609;29;20180;-83
2021/12/15 05:59:13;;;;;;;13.80;9.05;;;;;;;;;;4948730;29;20267;-83
2021/12/15 06:01:39;;;;;;;13.13;8.93;;;;;;;;;;4945068;29;20758;-82
2021/12/15 06:04:06;;;;;;;14.15;8.35;;;;;;;;;;4951982;29;20219;-83
2021/12/15 06:06:33;;;;;;;15.35;10.02;;;;;;;;;;4964632;29;20184;-83
2021/12/15 06:08:59;;;;;;;13.43;8.65;;;;;;;;;;4964843;29;20212;-83
2021/12/15 06:11:25;;;;;;;11.45;8.57;;;;;;;;;;4948017;29;20232;-82
2021/12/15 06:13:52;;;;;;;11.00;8.35;;;;;;;;;;4945216;29;20188;-83
2021/12/15 06:16:19;;;;;;;10.63;8.23;;;;;;;;;;4964387;29;20176;-83
2021/12/15 06:18:46;;;;;;;11.98;7.32;;;;;;;;;;4946143;29;20216;-83
2021/12/15 06:21:12;;;;;;;14.60;8.88;;;;;;;;;;4954308;28;20219;-83
2021/12/15 06:23:38;;;;;;;13.77;8.20;;;;;;;;;;4946748;28;20184;-83
2021/12/15 06:26:06;;;;;;;13.60;7.82;;;;;;;;;;4946011;29;20180;-82
2021/12/15 06:28:33;;;;;;;12.60;7.15;;;;;;;;;;4963331;28;20223;-81
2021/12/15 06:30:59;;;;;;;15.82;8.02;;;;;;;;;;4964695;28;20244;-82
2021/12/15 06:33:26;;;;;;;12.05;7.10;;;;;;;;;;4950676;29;21052;-82
2021/12/15 06:35:53;;;;;;;10.93;7.25;;;;;;;;;;4963887;28;20267;-82
2021/12/15 06:38:24;;;;;;;10.43;6.45;;;;;;;;;;4948072;29;20176;-82
2021/12/15 06:40:50;;;;;;;11.68;6.97;;;;;;;;;;4963107;29;20259;-82
2021/12/15 06:43:16;;;;;;;9.93;6.43;;;;;;;;;;4963666;29;20198;-82
2021/12/15 06:59:31;;;;;;;12.10;7.45;;;;;;;;;;4924197;29;20645;-82
2021/12/15 07:01:57;;;;;;;11.93;7.78;;;;;;;;;;4923127;29;20205;-81
2021/12/15 07:04:23;;;;;;;15.23;8.60;;;;;;;;;;4906681;29;20206;-82
2021/12/15 07:06:51;;;;;;;12.93;9.07;;;;;;;;;;4907384;29;20289;-83
2021/12/15 07:09:17;;;;;;;14.57;8.55;;;;;;;;;;4922582;29;20225;-83
2021/12/15 07:11:43;;;;;;;14.82;7.53;;;;;;;;;;4907185;29;20190;-81
2021/12/15 07:14:09;;;;;;;14.88;7.30;;;;;;;;;;4924135;29;20209;-81
2021/12/15 07:16:40;;;;;;;14.15;8.73;;;;;;;;;;4920740;29;20204;-81
2021/12/15 07:21:36;;;;;;;19.48;10.35;;;;;;;;;;4920800;29;20194;-82
2021/12/15 07:24:02;;;;;;;17.50;9.77;;;;;;;;;;4921696;29;20216;-82
2021/12/15 07:26:28;;;;;;;13.32;8.65;;;;;;;;;;4908480;29;21295;-85
2021/12/15 07:28:54;;;;;;;14.95;8.93;;;;;;;;;;4913059;29;20229;-84
2021/12/15 07:31:21;;;;;;;10.80;7.80;;;;;;;;;;4906564;29;20196;-86
2021/12/15 07:33:47;;;;;;;14.52;9.13;;;;;;;;;;4910006;29;20198;-84
2021/12/15 07:36:13;;;;;;;11.65;7.90;;;;;;;;;;4942528;28;20201;-85
2021/12/15 07:38:41;;;;;;;16.85;11.60;;;;;;;;;;4950193;28;20244;-85
2021/12/15 07:41:17;;;;;;;13.02;8.40;;;;;;;;;;4950063;29;20173;-85
2021/12/15 07:43:43;;;;;;;12.70;8.60;;;;;;;;;;4950841;29;20203;-85
2021/12/15 07:46:09;;;;;;;12.93;8.55;;;;;;;;;;4966186;29;20259;-85
2021/12/15 07:48:36;;;;;;;11.98;8.23;;;;;;;;;;4948703;29;20242;-85
2021/12/15 07:51:03;;;;;;;13.20;8.40;;;;;;;;;;4967646;28;20200;-86
2021/12/15 07:53:29;;;;;;;20.67;10.00;;;;;;;;;;4951838;28;20208;-85
2021/12/15 07:55:58;;;;;;;11.45;9.07;;;;;;;;;;4950948;29;20257;-87
2021/12/15 07:58:25;;;;;;;11.00;8.30;;;;;;;;;;4966435;28;20208;-86
2021/12/15 08:00:52;;;;;;;15.38;8.57;;;;;;;;;;4952113;28;20188;-87
2021/12/15 08:03:18;;;;;;;10.13;7.90;;;;;;;;;;4964216;28;20188;-86
2021/12/15 08:05:46;;;;;;;11.02;7.75;;;;;;;;;;4965965;29;20276;-84
2021/12/15 08:08:12;;;;;;;11.40;7.88;;;;;;;;;;4949018;29;20196;-85
2021/12/15 08:10:39;;;;;;;21.40;11.52;;;;;;;;;;4958866;29;20187;-85
2021/12/15 08:13:05;;;;;;;21.30;12.63;;;;;;;;;;4966475;29;20192;-83
2021/12/15 08:15:31;;;;;;;25.50;12.48;;;;;;;;;;4946945;29;20188;-85
2021/12/15 08:17:57;;;;;;;16.42;11.98;;;;;;;;;;4970692;28;20185;-89
2021/12/15 08:20:25;;;;;;;16.35;11.32;;;;;;;;;;4961766;29;20185;-87
2021/12/15 08:22:52;;;;;;;14.90;11.27;;;;;;;;;;4953214;29;20196;-89
2021/12/15 08:25:19;;;;;;;17.88;12.00;;;;;;;;;;4969599;29;20256;-90
2021/12/15 08:27:45;;;;;;;10.98;7.30;;;;;;;;;;4950269;29;20208;-88
2021/12/15 08:30:18;;;;;;;10.18;6.88;;;;;;;;;;4941681;29;20284;-88
2021/12/15 08:32:44;;;;;;;9.35;6.40;;;;;;;;;;4964142;28;20228;-88
2021/12/15 08:35:10;;;;;;;8.90;5.90;;;;;;;;;;4951720;28;20190;-88
2021/12/15 08:37:36;;;;;;;7.33;5.40;;;;;;;;;;4946136;29;20284;-88
2021/12/15 08:40:04;;;;;;;8.55;5.47;;;;;;;;;;4955548;29;20467;-88
2021/12/15 08:42:30;;;;;;;11.75;6.57;;;;;;;;;;4947578;29;20192;-88
2021/12/15 08:44:56;;;;;;;8.45;6.85;;;;;;;;;;4960457;29;20245;-88
2021/12/15 08:47:22;;;;;;;10.48;6.78;;;;;;;;;;4945902;29;20216;-88
2021/12/15 08:49:48;;;;;;;8.18;6.30;;;;;;;;;;4949172;29;20220;-88
2021/12/15 08:52:14;;;;;;;8.80;6.75;;;;;;;;;;4949951;29;20181;-88
2021/12/15 08:54:41;;;;;;;9.85;6.35;;;;;;;;;;4955954;29;20188;-87
2021/12/15 08:57:07;;;;;;;10.45;6.35;;;;;;;;;;4948540;29;20185;-86
2021/12/15 08:59:34;;;;;;;15.85;8.07;;;;;;;;;;4950972;29;20212;-87
2021/12/15 09:02:00;;;;;;;8.68;6.03;;;;;;;;;;4950475;29;20199;-86
2021/12/15 09:04:26;;;;;;;12.30;7.10;;;;;;;;;;4966459;28;20220;-87
2021/12/15 09:06:53;;;;;;;7.10;6.13;;;;;;;;;;4946740;29;20442;-88
2021/12/15 09:09:20;;;;;;;9.85;5.75;;;;;;;;;;4952868;29;20272;-89
2021/12/15 09:11:47;;;;;;;8.80;5.75;;;;;;;;;;4939121;29;20243;-88
2021/12/15 09:14:13;;;;;;;10.95;6.55;;;;;;;;;;4950367;29;20251;-90
2021/12/15 09:16:42;;;;;;;12.55;7.07;;;;;;;;;;4966278;29;20173;-89
2021/12/15 09:19:08;;;;;;;7.60;6.30;;;;;;;;;;4946054;29;20240;-88
2021/12/15 09:21:35;;;;;;;8.50;6.35;;;;;;;;;;4954380;29;20189;-89
2021/12/15 09:24:02;;;;;;;10.75;7.28;;;;;;;;;;4965905;28;20189;-88
2021/12/15 09:26:28;;;;;;;9.30;7.07;;;;;;;;;;4950158;29;20192;-88
2021/12/15 09:28:57;;;;;;;11.52;8.25;;;;;;;;;;4951956;29;20583;-87
2021/12/15 09:31:23;;;;;;;12.52;7.25;;;;;;;;;;4948944;29;20232;-87
2021/12/15 09:33:52;;;;;;;10.98;7.80;;;;;;;;;;4953006;29;20188;-88
2021/12/15 09:36:19;;;;;;;11.02;7.47;;;;;;;;;;4949831;29;20236;-88
2021/12/15 09:38:46;;;;;;;11.25;7.60;;;;;;;;;;4958048;28;20343;-86
2021/12/15 09:41:14;;;;;;;8.82;6.82;;;;;;;;;;4953251;29;20557;-87
2021/12/15 09:43:41;;;;;;;11.32;6.93;;;;;;;;;;4947786;29;20216;-88
2021/12/15 09:46:27;;;;;;;11.05;6.85;;;;;;;;;;4965576;28;20187;-90
2021/12/15 10:10:47;;;;;;;14.90;7.28;;;;;;;;;;4965487;28;20212;-86
2021/12/15 10:19:28;;;;;;;10.10;7.00;;;;;;;;;;4864398;29;20300;-86
2021/12/15 10:21:56;;;;;;;7.60;6.53;;;;;;;;;;4858853;29;20219;-86
2021/12/15 10:24:26;;;;;;;11.00;7.82;;;;;;;;;;4867549;29;20199;-88
2021/12/15 10:26:57;;;;;;;13.70;7.95;;;;;;;;;;4866907;29;20195;-86
2021/12/15 10:29:23;;;;;;;9.57;7.22;;;;;;;;;;4869257;29;20242;-87
2021/12/15 10:31:57;;;;;;;11.33;8.13;;;;;;;;;;4865320;29;20195;-88
2021/12/15 10:34:23;;;;;;;17.17;7.03;;;;;;;;;;4866112;29;20457;-87
2021/12/15 10:36:49;;;;;;;10.82;7.78;;;;;;;;;;4865094;29;20207;-87
2021/12/15 10:39:15;;;;;;;11.20;7.90;;;;;;;;;;4865179;29;20188;-87
2021/12/15 10:41:43;;;;;;;14.23;7.72;;;;;;;;;;4868375;29;20192;-86
2021/12/15 10:44:13;;;;;;;11.77;8.48;;;;;;;;;;4851626;29;20283;-86
2021/12/15 10:46:40;;;;;;;11.85;7.68;;;;;;;;;;4864339;29;20191;-87
2021/12/15 10:49:07;;;;;;;8.85;6.70;;;;;;;;;;4864389;29;20302;-87
2021/12/15 10:51:33;;;;;;;14.65;6.15;;;;;;;;;;4864399;29;20251;-86
2021/12/15 10:54:01;;;;;;;11.13;7.28;;;;;;;;;;4879347;29;20204;-86
2021/12/15 10:56:30;;;;;;;11.57;6.75;;;;;;;;;;4950679;29;20208;-86
2021/12/15 10:58:59;;;;;;;9.10;7.10;;;;;;;;;;4959037;28;20226;-86
2021/12/15 11:01:37;;;;;;;16.00;6.85;;;;;;;;;;4964187;28;20188;-86
2021/12/15 11:04:04;;;;;;;12.18;7.07;;;;;;;;;;4955087;28;20195;-86
2021/12/15 11:06:36;;;;;;;7.97;5.90;;;;;;;;;;4954001;28;20251;-86
2021/12/15 11:09:23;;;;;;;9.60;7.15;;;;;;;;;;4950925;29;20785;-86
2021/12/15 11:12:04;;;;;;;12.00;7.82;;;;;;;;;;4950348;29;20430;-86
2021/12/15 11:14:31;;;;;;;14.07;9.30;;;;;;;;;;4951888;29;20184;-87
2021/12/15 11:17:12;;;;;;;11.90;7.15;;;;;;;;;;4947718;29;20188;-86
2021/12/15 11:19:43;;;;;;;13.88;8.05;;;;;;;;;;4953077;28;20186;-87
2021/12/15 11:22:28;;;;;;;11.73;7.90;;;;;;;;;;4952235;29;20189;-86
2021/12/15 11:24:57;;;;;;;12.60;8.52;;;;;;;;;;4958301;28;20212;-86
2021/12/15 11:27:23;;;;;;;9.65;7.72;;;;;;;;;;4948320;29;20197;-86
2021/12/15 11:29:49;;;;;;;11.52;7.95;;;;;;;;;;4958815;28;20212;-86
2021/12/15 11:32:34;;;;;;;13.07;9.07;;;;;;;;;;4951804;29;20184;-86
2021/12/15 11:35:05;;;;;;;10.85;8.35;;;;;;;;;;4950863;28;20199;-87
2021/12/15 11:37:52;;;;;;;10.00;8.25;;;;;;;;;;4948460;29;20179;-86
2021/12/15 11:40:25;;;;;;;12.50;9.40;;;;;;;;;;4963706;28;20184;-86
2021/12/15 11:42:51;;;;;;;12.15;8.55;;;;;;;;;;4948516;29;20827;-87
2021/12/15 11:45:17;;;;;;;13.88;9.68;;;;;;;;;;4947881;29;20251;-87
2021/12/15 11:47:43;;;;;;;14.90;10.10;;;;;;;;;;4950488;28;20208;-86
2021/12/15 11:50:10;;;;;;;11.63;8.60;;;;;;;;;;4951391;29;20208;-85
2021/12/15 11:52:44;;;;;;;15.23;9.20;;;;;;;;;;4948138;29;20180;-85
2021/12/15 11:55:30;;;;;;;12.68;8.70;;;;;;;;;;4959642;29;20244;-86
2021/12/15 11:57:57;;;;;;;13.32;9.75;;;;;;;;;;4947883;29;20252;-88
2021/12/15 12:00:25;;;;;;;10.40;8.90;;;;;;;;;;4947277;29;20196;-84
2021/12/15 12:02:55;;;;;;;11.68;9.02;;;;;;;;;;4954583;28;20191;-86
2021/12/15 12:05:21;;;;;;;12.32;9.05;;;;;;;;;;4952916;29;20228;-87
2021/12/15 12:07:49;;;;;;;11.80;9.10;;;;;;;;;;4966517;28;20188;-88
2021/12/15 12:10:18;;;;;;;11.77;8.30;;;;;;;;;;4950424;29;20478;-88
2021/12/15 12:12:53;;;;;;;10.88;8.10;;;;;;;;;;4952498;29;20188;-89
2021/12/15 12:15:27;;;;;;;11.70;8.15;;;;;;;;;;4948738;29;20181;-88
2021/12/15 12:17:54;;;;;;;9.90;8.60;;;;;;;;;;4955485;28;20174;-88
2021/12/15 12:20:47;;;;;;;9.80;7.97;;;;;;;;;;4956837;29;20189;-88
2021/12/15 12:23:14;;;;;;;11.27;7.45;;;;;;;;;;4964285;29;20205;-88
2021/12/15 12:25:42;;;;;;;12.30;8.18;;;;;;;;;;4963348;29;20196;-89
2021/12/15 12:28:14;;;;;;;12.52;7.78;;;;;;;;;;4957722;28;20659;-88
2021/12/15 12:30:42;;;;;;;8.93;7.65;;;;;;;;;;4954487;28;20189;-87
2021/12/15 12:33:10;;;;;;;11.55;8.82;;;;;;;;;;4966284;29;20673;-87
2021/12/15 12:35:46;;;;;;;7.90;6.97;;;;;;;;;;4951260;29;20233;-89
2021/12/15 12:38:14;;;;;;;11.05;7.90;;;;;;;;;;4969981;28;20185;-90
2021/12/15 12:40:47;;;;;;;9.85;6.32;;;;;;;;;;4950400;29;20196;-90
2021/12/15 12:43:21;;;;;;;8.70;7.80;;;;;;;;;;4950480;29;20195;-89
2021/12/15 12:46:15;;;;;;;11.35;7.78;;;;;;;;;;4945140;29;20228;-89
2021/12/15 12:49:18;;;;;;;9.63;7.65;;;;;;;;;;4955805;29;20218;-91
2021/12/15 13:00:00;;;;;;;10.27;7.40;;;;;;;;;;4964601;28;20203;-88
2021/12/15 13:02:38;;;;;;;10.63;7.45;;;;;;;;;;4937766;29;20232;-88
2021/12/15 13:05:04;;;;;;;7.60;6.55;;;;;;;;;;4965255;29;20219;-89
2021/12/15 13:07:52;;;;;;;7.65;5.95;;;;;;;;;;4945849;29;20189;-86
2021/12/15 13:10:19;;;;;;;10.75;7.15;;;;;;;;;;4951684;29;20565;-86
2021/12/15 13:12:47;;;;;;;9.40;7.63;;;;;;;;;;4962635;29;20200;-87
2021/12/15 13:15:21;;;;;;;10.07;7.32;;;;;;;;;;4958366;28;20165;-89
2021/12/15 13:17:53;;;;;;;8.85;7.40;;;;;;;;;;4949889;28;20208;-88
2021/12/15 13:20:24;;;;;;;9.02;6.97;;;;;;;;;;4947518;29;20181;-88
2021/12/15 13:23:06;;;;;;;8.15;7.05;;;;;;;;;;4948084;29;20188;-87
2021/12/15 13:31:20;;;;;;;10.32;7.47;;;;;;;;;;4963535;28;20236;-87
2021/12/15 13:33:46;;;;;;;10.02;7.38;;;;;;;;;;4962418;28;20288;-88
2021/12/15 13:36:16;;;;;;;11.82;8.15;;;;;;;;;;4950475;29;20279;-88
2021/12/15 13:38:42;;;;;;;14.60;8.48;;;;;;;;;;4949485;28;20180;-87
2021/12/15 13:41:38;;;;;;;12.30;7.40;;;;;;;;;;4944874;29;20193;-87
2021/12/15 13:44:04;;;;;;;11.35;7.57;;;;;;;;;;4961973;29;20185;-87
2021/12/15 13:46:33;;;;;;;9.85;7.82;;;;;;;;;;4941607;29;20195;-87
2021/12/15 13:48:59;;;;;;;12.27;7.93;;;;;;;;;;4964377;28;20216;-85
2021/12/15 13:51:43;;;;;;;13.25;9.85;;;;;;;;;;4947857;29;20188;-88
2021/12/15 13:54:25;;;;;;;10.50;7.80;;;;;;;;;;4950776;29;20188;-85
2021/12/15 13:56:52;;;;;;;11.80;8.10;;;;;;;;;;4965648;29;20188;-86
2021/12/15 13:59:33;;;;;;;10.93;8.45;;;;;;;;;;4946675;29;20172;-87
2021/12/15 14:02:14;;;;;;;12.20;8.35;;;;;;;;;;4956404;28;20211;-86
2021/12/15 14:04:42;;;;;;;12.15;9.13;;;;;;;;;;4964452;28;20223;-86
2021/12/15 14:07:26;;;;;;;11.10;8.90;;;;;;;;;;4965066;29;20192;-87
2021/12/15 14:09:52;;;;;;;11.35;8.13;;;;;;;;;;4963577;29;20573;-86
2021/12/15 14:12:38;;;;;;;9.13;7.50;;;;;;;;;;4945289;29;20197;-87
2021/12/15 14:15:04;;;;;;;11.80;8.15;;;;;;;;;;4942857;28;20184;-86
2021/12/15 14:17:30;;;;;;;14.15;8.88;;;;;;;;;;4968182;28;20242;-86
2021/12/15 14:19:56;;;;;;;10.40;7.88;;;;;;;;;;4947536;29;20200;-87
2021/12/15 14:22:23;;;;;;;11.40;7.65;;;;;;;;;;4948430;28;20219;-87
2021/12/15 14:24:50;;;;;;;12.18;8.40;;;;;;;;;;4951862;28;20203;-87
2021/12/15 14:27:16;;;;;;;11.55;8.43;;;;;;;;;;4964293;28;20184;-88
2021/12/15 14:29:43;;;;;;;14.82;9.20;;;;;;;;;;4948558;29;20244;-86
2021/12/15 14:32:09;;;;;;;11.38;8.52;;;;;;;;;;4947869;29;20185;-86
2021/12/15 14:34:36;;;;;;;12.55;8.70;;;;;;;;;;4969222;28;20191;-87
2021/12/15 14:37:07;;;;;;;10.48;8.60;;;;;;;;;;4944333;29;20180;-87
2021/12/15 14:39:35;;;;;;;9.48;7.05;;;;;;;;;;4962690;28;20647;-88
2021/12/15 14:42:21;;;;;;;8.95;7.30;;;;;;;;;;4946435;28;20192;-87
2021/12/15 14:44:49;;;;;;;10.52;7.32;;;;;;;;;;4937427;28;20189;-84
2021/12/15 14:47:16;;;;;;;7.45;6.35;;;;;;;;;;4964854;29;20180;-84
2021/12/15 14:49:45;;;;;;;8.00;7.28;;;;;;;;;;4964588;28;20943;-83
2021/12/15 14:52:13;;;;;;;12.20;8.10;;;;;;;;;;4946949;28;20577;-84
2021/12/15 14:54:41;;;;;;;8.18;6.90;;;;;;;;;;4961109;28;20554;-84
2021/12/15 14:57:11;;;;;;;9.80;7.35;;;;;;;;;;4945500;29;20219;-84
2021/12/15 14:59:37;;;;;;;8.43;7.10;;;;;;;;;;4960393;28;20182;-85
2021/12/15 15:02:15;;;;;;;8.65;6.28;;;;;;;;;;4964535;28;20180;-86
2021/12/15 15:04:43;;;;;;;9.60;7.10;;;;;;;;;;4967633;28;20283;-84
2021/12/15 15:07:10;;;;;;;12.18;7.68;;;;;;;;;;4948823;29;20227;-86
2021/12/15 15:09:38;;;;;;;12.00;8.73;;;;;;;;;;4944569;29;20208;-86
2021/12/15 15:12:13;;;;;;;10.73;8.52;;;;;;;;;;4961860;28;20185;-84
2021/12/15 15:14:39;;;;;;;13.05;8.45;;;;;;;;;;4947499;29;20692;-86
2021/12/15 15:17:07;;;;;;;11.97;10.13;;;;;;;;;;4961525;29;20185;-85
2021/12/15 15:19:50;;;;;;;12.57;9.07;;;;;;;;;;4946358;29;20927;-84
2021/12/15 15:22:17;;;;;;;12.63;8.93;;;;;;;;;;4943021;29;20193;-84
2021/12/15 15:24:47;;;;;;;13.65;8.18;;;;;;;;;;4950926;29;20189;-83
2021/12/15 15:27:13;;;;;;;14.93;9.82;;;;;;;;;;4945476;29;20192;-84
2021/12/15 15:29:41;;;;;;;12.37;8.40;;;;;;;;;;4947803;29;20243;-86
2021/12/15 15:32:16;;;;;;;13.75;9.25;;;;;;;;;;4960760;29;20471;-91
2021/12/15 15:34:43;;;;;;;12.52;8.98;;;;;;;;;;4958130;29;20247;-87
2021/12/15 15:37:11;;;;;;;12.35;9.50;;;;;;;;;;4944020;29;20177;-86
2021/12/15 15:39:37;;;;;;;10.45;8.70;;;;;;;;;;4946525;29;20191;-89
2021/12/15 15:42:03;;;;;;;8.50;7.60;;;;;;;;;;4946118;29;20283;-87
2021/12/15 15:44:34;;;;;;;8.70;7.40;;;;;;;;;;4947708;29;20181;-89
2021/12/15 15:47:00;;;;;;;8.57;7.70;;;;;;;;;;4956143;28;20190;-88
2021/12/15 15:49:26;;;;;;;12.75;8.25;;;;;;;;;;4947298;29;20223;-88
2021/12/15 15:51:53;;;;;;;7.45;6.72;;;;;;;;;;4946692;29;20196;-88
2021/12/15 15:54:21;;;;;;;6.85;6.25;;;;;;;;;;4949126;28;20205;-89
2021/12/15 15:56:48;;;;;;;8.30;7.05;;;;;;;;;;4962855;28;20193;-88
2021/12/15 15:59:16;;;;;;;8.30;7.07;;;;;;;;;;4947262;29;20192;-90
2021/12/15 16:01:44;;;;;;;9.10;7.75;;;;;;;;;;4966702;28;20180;-88
2021/12/15 16:04:11;;;;;;;8.25;7.35;;;;;;;;;;4951694;29;20218;-88
2021/12/15 16:06:37;;;;;;;9.27;7.20;;;;;;;;;;4951435;28;20180;-88
2021/12/15 16:09:06;;;;;;;9.15;6.95;;;;;;;;;;4953903;29;20438;-87
2021/12/15 16:11:36;;;;;;;8.90;6.60;;;;;;;;;;4955529;28;20188;-87